Jump to content

  •  

DELTA AIRLINES FLIGHT DL1829 FLOWN ON 06-13-2017 BY CAPTAIN JIM BOERMAN

Pilot StatsCaptain Jim Boerman (LDP136) • 4,686.4 total hours • 1,423 total flights [View Logbook]
FLIGHT DETAILS
StatusReceived and approved on 2017-06-13 at 10:06:15
Origin AirportMinneapolis-St Paul Intl (KMSP) • Minneapolis, Minnesota, United States (841 feet MSL)
Filed Flight PlanFLIGHT PLANNER OFFLINE
Destination AirportCincinnati-Northern Ky Intl (KCVG) • Cincinnati, Ohio, United States (896 feet MSL)
Alternate AirportRickenbacker Intl (KLCK) • Columbus, Ohio, United States (744 feet MSL)
AirlineDelta Airlines
AircraftBoeing 737-800 | Winglets (73H / B737-800)
FS Aircraft UsedBoeing 737-832NGX Delta Air Lines Winglets
Cruising AltitudeFL330
Distance Flown518 nautical miles
Passengers Onboard109 passengers (67.28% full)
DEPARTURE DETAILS
Time Out07:35:31
Taxi Data151,723 lbs total with 18,109 lbs of fuel onboard
Takeoff Data08:00:04 (25 minutes after leaving gate/ramp) • 150,640 lbs total • 9° pitch at 160 knots
Departure METARKMSP 131053Z 09007KT 10SM SCT046 BKN075 BKN095 20/17 A2986 RMK AO2 SLP110 T02000172
ARRIVAL DETAILS
Landing Data10:23:19 • 142,149 lbs total • 3° pitch doing 135 knots at a rate of -102.27 feet/minute with 8,107 lbs of fuel onboard
Time In10:32:20 (9 minutes after landing)
Ramp Weight141,721 lbs total
Total Fuel Used10,002 lbs
Total Block Time01:54:09 (1.9 hours) while 34 minutes were spent on the ground
Arrival METARKCVG 131352Z 25007KT 10SM SCT070 SCT120 BKN250 28/22 A3008 RMK AO2 SLP176 MDT CU SE W T02830222
MISCELLANEOUS DETAILS
LiveDISPATCH Version4.8.3.1
FS Version
FSUIPC Version4.93
OS VersionWindows 7 32-bit
Screen Resolution1920 x 1080
Pilot's CommentsNo Comments Reported
FLIGHT MAP